Date,TemperatureHighF,TemperatureAvgF,TemperatureLowF,DewpointHighF,DewpointAvgF,DewpointLowF,HumidityHigh,HumidityAvg,HumidityLow,PressureMaxIn,PressureMinIn,WindSpeedMaxMPH,WindSpeedAvgMPH,GustSpeedMaxMPH,PrecipitationSumIn
2014-1-1,47.0,32.1,22.0,26.0,22.7,20.0,92,71,34,0.00,40.00,5,2,11,0.00
2014-1-2,43.0,34.2,20.0,42.0,30.2,10.0,96,85,62,0.00,40.00,10,4,26,0.26
2014-1-3,35.0,22.4,13.0,14.0,6.7,1.0,79,53,29,0.00,40.00,15,6,31,0.01
2014-1-4,44.0,27.7,13.0,35.0,18.8,-99.9,89,74,47,0.00,40.00,7,3,14,0.00
2014-1-5,53.0,44.1,37.0,45.0,38.8,33.0,94,82,68,0.00,40.00,9,4,24,0.01
2014-1-6,46.0,21.1,2.0,44.0,11.1,-13.0,94,66,44,0.00,40.00,13,7,25,0.22
2014-1-7,26.0,10.6,-1.0,6.0,-6.4,-12.0,74,48,28,0.00,40.00,9,5,19,0.01
2014-1-8,49.0,22.8,7.0,19.0,9.2,3.0,85,62,21,0.00,40.00,4,2,7,0.00
2014-1-9,49.0,27.7,18.0,37.0,23.1,16.0,97,84,36,0.00,40.00,3,2,7,0.04
2014-1-10,53.0,45.6,37.0,51.0,43.9,36.0,98,95,88,0.00,40.00,7,2,15,0.47
2014-1-11,60.0,51.4,41.0,54.0,43.0,-99.9,98,79,37,0.00,40.00,9,5,21,1.23
2014-1-12,57.0,41.0,30.0,35.0,29.5,24.0,94,69,28,0.00,40.00,5,3,14,0.17
2014-1-13,53.0,36.7,26.0,40.0,30.8,25.0,95,82,42,0.00,40.00,6,2,16,0.11
2014-1-14,53.0,43.2,29.0,44.0,34.0,20.0,98,75,34,0.00,40.00,8,3,17,0.28
2014-1-15,40.0,32.0,25.0,33.0,21.4,7.0,95,69,27,0.00,40.00,7,4,18,0.02
2014-1-16,45.0,28.7,16.0,17.0,12.4,5.0,88,55,24,0.00,40.00,5,3,15,0.00
2014-1-17,49.0,32.6,20.0,25.0,16.0,7.0,86,55,20,0.00,40.00,15,6,30,0.00
2014-1-18,39.0,27.5,17.0,18.0,4.7,-99.9,73,41,20,0.00,40.00,9,5,20,0.00
2014-1-19,49.0,36.2,26.0,23.0,19.0,8.0,79,51,33,0.00,40.00,8,4,20,0.00
2014-1-20,63.0,44.3,24.0,26.0,21.1,18.0,82,46,18,0.00,40.00,8,4,17,0.00
2014-1-21,45.0,31.3,17.0,32.0,21.5,7.0,84,68,44,0.00,40.00,10,7,22,0.02
2014-1-22,32.0,19.9,10.0,7.0,-1.3,-8.0,65,42,17,0.00,40.00,8,5,18,0.02
2014-1-23,31.0,21.4,12.0,9.0,0.9,-8.0,62,42,24,0.00,40.00,9,6,21,0.00
2014-1-24,32.0,14.1,3.0,0.0,-8.3,-18.0,67,40,12,0.00,40.00,11,4,21,0.00
2014-1-25,35.0,19.5,4.0,20.0,7.1,-99.9,77,62,30,0.00,40.00,6,4,21,0.00
2014-1-26,54.0,36.6,19.0,25.0,18.8,13.0,78,51,29,0.00,40.00,9,4,21,0.00
2014-1-27,53.0,36.6,27.0,37.0,24.6,5.0,92,64,39,0.00,40.00,9,4,20,0.00
2014-1-28,27.0,23.7,20.0,23.0,12.3,0.0,88,65,34,0.00,40.00,4,3,10,0.00
2014-1-29,33.0,19.3,8.0,16.0,2.9,-6.0,85,54,21,0.00,40.00,6,3,13,0.20
2014-1-30,44.0,19.5,0.0,12.0,4.1,-5.0,84,58,18,0.00,40.00,6,2,12,0.01
2014-1-31,59.0,27.9,11.0,21.0,13.5,8.0,87,62,13,0.00,40.00,4,2,7,0.00